sensor_id;sensor_type;location;lat;lon;timestamp;P1;durP1;ratioP1;P2;durP2;ratioP2
67595;SDS011;54410;48.694;8.934;2024-03-06T00:00:48;12.60;;;7.70;;
67595;SDS011;54410;48.694;8.934;2024-03-06T00:03:14;6.97;;;6.27;;
67595;SDS011;54410;48.694;8.934;2024-03-06T00:05:40;6.93;;;6.20;;
67595;SDS011;54410;48.694;8.934;2024-03-06T00:08:06;8.40;;;6.47;;
67595;SDS011;54410;48.694;8.934;2024-03-06T00:10:32;9.47;;;6.07;;
67595;SDS011;54410;48.694;8.934;2024-03-06T00:12:57;7.93;;;6.13;;
67595;SDS011;54410;48.694;8.934;2024-03-06T00:15:23;6.63;;;5.93;;
67595;SDS011;54410;48.694;8.934;2024-03-06T00:17:49;11.00;;;6.73;;
67595;SDS011;54410;48.694;8.934;2024-03-06T00:20:15;8.53;;;6.70;;
67595;SDS011;54410;48.694;8.934;2024-03-06T00:22:41;5.80;;;5.20;;
67595;SDS011;54410;48.694;8.934;2024-03-06T00:25:07;6.53;;;5.67;;
67595;SDS011;54410;48.694;8.934;2024-03-06T00:27:33;6.73;;;6.03;;
67595;SDS011;54410;48.694;8.934;2024-03-06T00:29:59;7.03;;;6.40;;
67595;SDS011;54410;48.694;8.934;2024-03-06T00:32:25;6.17;;;5.47;;
67595;SDS011;54410;48.694;8.934;2024-03-06T00:34:50;5.90;;;5.20;;
67595;SDS011;54410;48.694;8.934;2024-03-06T00:37:16;5.50;;;5.00;;
67595;SDS011;54410;48.694;8.934;2024-03-06T00:39:42;6.73;;;5.03;;
67595;SDS011;54410;48.694;8.934;2024-03-06T00:42:08;5.20;;;4.80;;
67595;SDS011;54410;48.694;8.934;2024-03-06T00:44:35;5.33;;;4.83;;
67595;SDS011;54410;48.694;8.934;2024-03-06T00:47:01;7.80;;;4.50;;
67595;SDS011;54410;48.694;8.934;2024-03-06T00:49:27;5.50;;;5.10;;
67595;SDS011;54410;48.694;8.934;2024-03-06T00:51:53;6.07;;;5.47;;
67595;SDS011;54410;48.694;8.934;2024-03-06T00:54:19;8.43;;;5.50;;
67595;SDS011;54410;48.694;8.934;2024-03-06T00:56:45;5.93;;;5.33;;
67595;SDS011;54410;48.694;8.934;2024-03-06T00:59:10;6.23;;;5.63;;
67595;SDS011;54410;48.694;8.934;2024-03-06T01:01:36;5.77;;;5.23;;
67595;SDS011;54410;48.694;8.934;2024-03-06T01:04:02;6.37;;;5.77;;
67595;SDS011;54410;48.694;8.934;2024-03-06T01:06:28;6.87;;;6.20;;
67595;SDS011;54410;48.694;8.934;2024-03-06T01:08:54;6.63;;;5.97;;
67595;SDS011;54410;48.694;8.934;2024-03-06T01:11:20;8.43;;;6.40;;
67595;SDS011;54410;48.694;8.934;2024-03-06T01:13:46;6.43;;;5.77;;
67595;SDS011;54410;48.694;8.934;2024-03-06T01:16:12;7.40;;;6.67;;
67595;SDS011;54410;48.694;8.934;2024-03-06T01:18:38;7.70;;;6.90;;
67595;SDS011;54410;48.694;8.934;2024-03-06T01:21:04;8.87;;;6.33;;
67595;SDS011;54410;48.694;8.934;2024-03-06T01:23:30;8.37;;;7.00;;
67595;SDS011;54410;48.694;8.934;2024-03-06T01:25:56;8.03;;;7.20;;
67595;SDS011;54410;48.694;8.934;2024-03-06T01:28:22;8.97;;;7.00;;
67595;SDS011;54410;48.694;8.934;2024-03-06T01:30:48;7.77;;;7.03;;
67595;SDS011;54410;48.694;8.934;2024-03-06T01:33:14;9.20;;;7.70;;
67595;SDS011;54410;48.694;8.934;2024-03-06T01:35:40;7.87;;;6.93;;
67595;SDS011;54410;48.694;8.934;2024-03-06T01:38:06;10.63;;;7.63;;
67595;SDS011;54410;48.694;8.934;2024-03-06T01:40:31;7.63;;;6.93;;
67595;SDS011;54410;48.694;8.934;2024-03-06T01:42:57;9.17;;;7.10;;
67595;SDS011;54410;48.694;8.934;2024-03-06T01:45:23;7.90;;;7.10;;
67595;SDS011;54410;48.694;8.934;2024-03-06T01:47:49;9.37;;;7.23;;
67595;SDS011;54410;48.694;8.934;2024-03-06T01:50:15;10.33;;;7.50;;
67595;SDS011;54410;48.694;8.934;2024-03-06T01:52:41;7.70;;;6.50;;
67595;SDS011;54410;48.694;8.934;2024-03-06T01:55:07;8.73;;;7.03;;
67595;SDS011;54410;48.694;8.934;2024-03-06T01:57:33;9.73;;;7.33;;
67595;SDS011;54410;48.694;8.934;2024-03-06T01:59:59;10.80;;;6.93;;
67595;SDS011;54410;48.694;8.934;2024-03-06T02:02:26;8.47;;;7.03;;
67595;SDS011;54410;48.694;8.934;2024-03-06T02:04:53;8.07;;;7.07;;
67595;SDS011;54410;48.694;8.934;2024-03-06T02:07:19;8.83;;;6.73;;
67595;SDS011;54410;48.694;8.934;2024-03-06T02:09:46;12.17;;;7.37;;
67595;SDS011;54410;48.694;8.934;2024-03-06T02:12:13;8.63;;;6.60;;
67595;SDS011;54410;48.694;8.934;2024-03-06T02:14:39;10.17;;;6.70;;
67595;SDS011;54410;48.694;8.934;2024-03-06T02:17:05;9.57;;;7.70;;
67595;SDS011;54410;48.694;8.934;2024-03-06T02:19:38;10.63;;;6.93;;
67595;SDS011;54410;48.694;8.934;2024-03-06T02:22:05;9.30;;;6.73;;
67595;SDS011;54410;48.694;8.934;2024-03-06T02:24:31;8.33;;;6.60;;
67595;SDS011;54410;48.694;8.934;2024-03-06T02:26:57;6.73;;;6.13;;
67595;SDS011;54410;48.694;8.934;2024-03-06T02:29:25;6.53;;;5.93;;
67595;SDS011;54410;48.694;8.934;2024-03-06T02:31:51;7.00;;;6.27;;
67595;SDS011;54410;48.694;8.934;2024-03-06T02:34:17;7.37;;;5.80;;
67595;SDS011;54410;48.694;8.934;2024-03-06T02:36:44;6.20;;;5.60;;
67595;SDS011;54410;48.694;8.934;2024-03-06T02:39:10;6.80;;;6.20;;
67595;SDS011;54410;48.694;8.934;2024-03-06T02:41:36;8.27;;;6.10;;
67595;SDS011;54410;48.694;8.934;2024-03-06T02:44:01;6.17;;;5.30;;
67595;SDS011;54410;48.694;8.934;2024-03-06T02:46:27;10.77;;;6.60;;
67595;SDS011;54410;48.694;8.934;2024-03-06T02:48:53;8.67;;;7.37;;
67595;SDS011;54410;48.694;8.934;2024-03-06T02:51:20;9.73;;;7.60;;
67595;SDS011;54410;48.694;8.934;2024-03-06T02:53:47;6.80;;;6.20;;
67595;SDS011;54410;48.694;8.934;2024-03-06T02:56:18;6.20;;;5.60;;
67595;SDS011;54410;48.694;8.934;2024-03-06T02:58:44;6.00;;;5.40;;
67595;SDS011;54410;48.694;8.934;2024-03-06T03:01:10;6.27;;;5.67;;
67595;SDS011;54410;48.694;8.934;2024-03-06T03:03:39;6.13;;;5.53;;
67595;SDS011;54410;48.694;8.934;2024-03-06T03:06:06;6.83;;;5.70;;
67595;SDS011;54410;48.694;8.934;2024-03-06T03:08:32;6.30;;;5.70;;
67595;SDS011;54410;48.694;8.934;2024-03-06T03:10:58;5.80;;;5.20;;
67595;SDS011;54410;48.694;8.934;2024-03-06T03:13:24;6.10;;;5.50;;
67595;SDS011;54410;48.694;8.934;2024-03-06T03:15:49;8.70;;;6.27;;
67595;SDS011;54410;48.694;8.934;2024-03-06T03:18:16;6.80;;;5.90;;
67595;SDS011;54410;48.694;8.934;2024-03-06T03:20:42;10.10;;;7.20;;
67595;SDS011;54410;48.694;8.934;2024-03-06T03:23:07;9.83;;;6.90;;
67595;SDS011;54410;48.694;8.934;2024-03-06T03:25:36;7.33;;;6.60;;
67595;SDS011;54410;48.694;8.934;2024-03-06T03:28:02;7.23;;;6.53;;
67595;SDS011;54410;48.694;8.934;2024-03-06T03:30:28;9.53;;;7.43;;
67595;SDS011;54410;48.694;8.934;2024-03-06T03:32:54;9.97;;;7.13;;
67595;SDS011;54410;48.694;8.934;2024-03-06T03:35:20;7.10;;;6.40;;
67595;SDS011;54410;48.694;8.934;2024-03-06T03:37:50;10.10;;;7.43;;
67595;SDS011;54410;48.694;8.934;2024-03-06T03:40:16;8.60;;;6.87;;
67595;SDS011;54410;48.694;8.934;2024-03-06T03:42:43;8.33;;;6.70;;
67595;SDS011;54410;48.694;8.934;2024-03-06T03:45:09;9.07;;;7.03;;
67595;SDS011;54410;48.694;8.934;2024-03-06T03:47:37;6.90;;;6.30;;
67595;SDS011;54410;48.694;8.934;2024-03-06T03:50:03;7.97;;;7.27;;
67595;SDS011;54410;48.694;8.934;2024-03-06T03:52:29;7.83;;;6.63;;
67595;SDS011;54410;48.694;8.934;2024-03-06T03:54:55;7.83;;;6.70;;
67595;SDS011;54410;48.694;8.934;2024-03-06T03:57:21;7.30;;;6.60;;
67595;SDS011;54410;48.694;8.934;2024-03-06T03:59:47;10.23;;;6.87;;
67595;SDS011;54410;48.694;8.934;2024-03-06T04:02:13;7.97;;;7.13;;
67595;SDS011;54410;48.694;8.934;2024-03-06T04:04:39;7.83;;;7.03;;
67595;SDS011;54410;48.694;8.934;2024-03-06T04:07:05;7.30;;;5.93;;
67595;SDS011;54410;48.694;8.934;2024-03-06T04:09:32;9.20;;;6.60;;
67595;SDS011;54410;48.694;8.934;2024-03-06T04:12:01;10.10;;;6.30;;
67595;SDS011;54410;48.694;8.934;2024-03-06T04:14:28;8.27;;;7.00;;
67595;SDS011;54410;48.694;8.934;2024-03-06T04:16:55;7.00;;;6.30;;
67595;SDS011;54410;48.694;8.934;2024-03-06T04:19:21;7.20;;;6.53;;
67595;SDS011;54410;48.694;8.934;2024-03-06T04:21:46;6.73;;;6.03;;
67595;SDS011;54410;48.694;8.934;2024-03-06T04:24:12;7.30;;;5.83;;
67595;SDS011;54410;48.694;8.934;2024-03-06T04:26:38;5.90;;;5.20;;
67595;SDS011;54410;48.694;8.934;2024-03-06T04:29:04;7.00;;;6.20;;
67595;SDS011;54410;48.694;8.934;2024-03-06T04:31:30;7.17;;;5.87;;
67595;SDS011;54410;48.694;8.934;2024-03-06T04:33:56;7.90;;;6.13;;
67595;SDS011;54410;48.694;8.934;2024-03-06T04:36:22;7.30;;;5.50;;
67595;SDS011;54410;48.694;8.934;2024-03-06T04:38:48;6.90;;;5.70;;
67595;SDS011;54410;48.694;8.934;2024-03-06T04:41:14;6.87;;;6.27;;
67595;SDS011;54410;48.694;8.934;2024-03-06T04:43:40;7.97;;;7.17;;
67595;SDS011;54410;48.694;8.934;2024-03-06T04:46:11;6.77;;;6.13;;
67595;SDS011;54410;48.694;8.934;2024-03-06T04:48:38;9.17;;;7.23;;
67595;SDS011;54410;48.694;8.934;2024-03-06T04:51:04;8.53;;;6.97;;
67595;SDS011;54410;48.694;8.934;2024-03-06T04:53:29;9.63;;;7.40;;
67595;SDS011;54410;48.694;8.934;2024-03-06T04:55:56;7.97;;;7.17;;
67595;SDS011;54410;48.694;8.934;2024-03-06T04:58:22;8.87;;;6.00;;
67595;SDS011;54410;48.694;8.934;2024-03-06T05:00:48;10.33;;;6.20;;
67595;SDS011;54410;48.694;8.934;2024-03-06T05:03:14;6.50;;;5.80;;
67595;SDS011;54410;48.694;8.934;2024-03-06T05:05:40;10.03;;;6.27;;
67595;SDS011;54410;48.694;8.934;2024-03-06T05:08:06;8.47;;;6.87;;
67595;SDS011;54410;48.694;8.934;2024-03-06T05:10:32;9.87;;;6.73;;
67595;SDS011;54410;48.694;8.934;2024-03-06T05:12:57;7.67;;;6.50;;
67595;SDS011;54410;48.694;8.934;2024-03-06T05:15:23;12.00;;;6.57;;
67595;SDS011;54410;48.694;8.934;2024-03-06T05:17:49;7.60;;;6.30;;
67595;SDS011;54410;48.694;8.934;2024-03-06T05:20:15;8.77;;;6.73;;
67595;SDS011;54410;48.694;8.934;2024-03-06T05:22:41;8.03;;;6.70;;
67595;SDS011;54410;48.694;8.934;2024-03-06T05:25:07;8.93;;;6.67;;
67595;SDS011;54410;48.694;8.934;2024-03-06T05:27:33;9.10;;;7.20;;
67595;SDS011;54410;48.694;8.934;2024-03-06T05:30:00;11.37;;;8.10;;
67595;SDS011;54410;48.694;8.934;2024-03-06T05:32:26;8.73;;;7.73;;
67595;SDS011;54410;48.694;8.934;2024-03-06T05:34:52;12.13;;;8.03;;
67595;SDS011;54410;48.694;8.934;2024-03-06T05:37:18;15.13;;;8.87;;
67595;SDS011;54410;48.694;8.934;2024-03-06T05:39:44;11.50;;;9.10;;
67595;SDS011;54410;48.694;8.934;2024-03-06T05:42:10;12.00;;;8.13;;
67595;SDS011;54410;48.694;8.934;2024-03-06T05:44:36;9.63;;;8.40;;
67595;SDS011;54410;48.694;8.934;2024-03-06T05:47:02;10.33;;;7.47;;
67595;SDS011;54410;48.694;8.934;2024-03-06T05:49:28;11.80;;;7.67;;
67595;SDS011;54410;48.694;8.934;2024-03-06T05:51:55;13.17;;;10.00;;
67595;SDS011;54410;48.694;8.934;2024-03-06T05:54:21;13.97;;;8.70;;
67595;SDS011;54410;48.694;8.934;2024-03-06T05:56:47;10.37;;;7.93;;
67595;SDS011;54410;48.694;8.934;2024-03-06T05:59:14;11.07;;;8.00;;
67595;SDS011;54410;48.694;8.934;2024-03-06T06:01:40;11.93;;;8.83;;
67595;SDS011;54410;48.694;8.934;2024-03-06T06:04:07;8.90;;;7.43;;
67595;SDS011;54410;48.694;8.934;2024-03-06T06:06:34;15.83;;;7.60;;
67595;SDS011;54410;48.694;8.934;2024-03-06T06:09:00;12.07;;;7.63;;
67595;SDS011;54410;48.694;8.934;2024-03-06T06:11:25;9.57;;;7.63;;
67595;SDS011;54410;48.694;8.934;2024-03-06T06:13:51;12.60;;;7.40;;
67595;SDS011;54410;48.694;8.934;2024-03-06T06:16:17;8.43;;;7.53;;
67595;SDS011;54410;48.694;8.934;2024-03-06T06:18:43;10.93;;;7.23;;
67595;SDS011;54410;48.694;8.934;2024-03-06T06:21:09;10.70;;;7.57;;
67595;SDS011;54410;48.694;8.934;2024-03-06T06:23:35;9.10;;;6.73;;
67595;SDS011;54410;48.694;8.934;2024-03-06T06:26:01;12.00;;;7.07;;
67595;SDS011;54410;48.694;8.934;2024-03-06T06:28:27;10.67;;;6.90;;
67595;SDS011;54410;48.694;8.934;2024-03-06T06:30:53;12.47;;;7.33;;
67595;SDS011;54410;48.694;8.934;2024-03-06T06:33:19;7.80;;;7.00;;
67595;SDS011;54410;48.694;8.934;2024-03-06T06:35:46;12.47;;;7.90;;
67595;SDS011;54410;48.694;8.934;2024-03-06T06:38:12;11.40;;;6.67;;
67595;SDS011;54410;48.694;8.934;2024-03-06T06:40:38;10.73;;;7.23;;
67595;SDS011;54410;48.694;8.934;2024-03-06T06:43:05;11.13;;;6.93;;
67595;SDS011;54410;48.694;8.934;2024-03-06T06:45:31;9.13;;;7.03;;
67595;SDS011;54410;48.694;8.934;2024-03-06T06:47:57;11.13;;;8.10;;
67595;SDS011;54410;48.694;8.934;2024-03-06T06:50:22;10.40;;;6.90;;
67595;SDS011;54410;48.694;8.934;2024-03-06T06:52:51;10.30;;;6.60;;
67595;SDS011;54410;48.694;8.934;2024-03-06T06:55:17;8.63;;;6.60;;
67595;SDS011;54410;48.694;8.934;2024-03-06T06:57:43;11.90;;;6.93;;
67595;SDS011;54410;48.694;8.934;2024-03-06T07:00:09;10.70;;;6.57;;
67595;SDS011;54410;48.694;8.934;2024-03-06T07:02:39;11.53;;;6.43;;
67595;SDS011;54410;48.694;8.934;2024-03-06T07:05:06;7.40;;;5.90;;
67595;SDS011;54410;48.694;8.934;2024-03-06T07:07:33;8.23;;;6.50;;
67595;SDS011;54410;48.694;8.934;2024-03-06T07:09:59;8.80;;;6.63;;
67595;SDS011;54410;48.694;8.934;2024-03-06T07:12:25;8.10;;;6.23;;
67595;SDS011;54410;48.694;8.934;2024-03-06T07:14:51;9.67;;;6.23;;
67595;SDS011;54410;48.694;8.934;2024-03-06T07:17:17;8.37;;;6.27;;
67595;SDS011;54410;48.694;8.934;2024-03-06T07:19:42;9.30;;;7.27;;
67595;SDS011;54410;48.694;8.934;2024-03-06T07:22:08;10.27;;;6.40;;
67595;SDS011;54410;48.694;8.934;2024-03-06T07:24:34;11.33;;;7.30;;
67595;SDS011;54410;48.694;8.934;2024-03-06T07:27:01;11.27;;;7.57;;
67595;SDS011;54410;48.694;8.934;2024-03-06T07:29:27;10.47;;;6.47;;
67595;SDS011;54410;48.694;8.934;2024-03-06T07:31:53;10.77;;;7.97;;
67595;SDS011;54410;48.694;8.934;2024-03-06T07:34:20;12.53;;;7.90;;
67595;SDS011;54410;48.694;8.934;2024-03-06T07:36:49;13.17;;;9.07;;
67595;SDS011;54410;48.694;8.934;2024-03-06T07:39:15;12.30;;;8.03;;
67595;SDS011;54410;48.694;8.934;2024-03-06T07:41:41;11.13;;;8.00;;
67595;SDS011;54410;48.694;8.934;2024-03-06T07:44:07;13.17;;;7.80;;
67595;SDS011;54410;48.694;8.934;2024-03-06T07:46:33;10.10;;;7.77;;
67595;SDS011;54410;48.694;8.934;2024-03-06T07:49:00;9.13;;;7.43;;
67595;SDS011;54410;48.694;8.934;2024-03-06T07:51:28;8.43;;;6.73;;
67595;SDS011;54410;48.694;8.934;2024-03-06T07:53:53;9.57;;;6.60;;
67595;SDS011;54410;48.694;8.934;2024-03-06T07:56:19;10.27;;;6.83;;
67595;SDS011;54410;48.694;8.934;2024-03-06T07:58:45;10.60;;;6.93;;
67595;SDS011;54410;48.694;8.934;2024-03-06T08:01:11;7.60;;;6.43;;
67595;SDS011;54410;48.694;8.934;2024-03-06T08:03:38;9.70;;;6.33;;
67595;SDS011;54410;48.694;8.934;2024-03-06T08:06:05;7.70;;;6.10;;
67595;SDS011;54410;48.694;8.934;2024-03-06T08:08:31;7.13;;;6.43;;
67595;SDS011;54410;48.694;8.934;2024-03-06T08:10:57;8.80;;;6.40;;
67595;SDS011;54410;48.694;8.934;2024-03-06T08:13:23;9.77;;;6.00;;
67595;SDS011;54410;48.694;8.934;2024-03-06T08:15:49;10.07;;;6.17;;
67595;SDS011;54410;48.694;8.934;2024-03-06T08:18:16;8.10;;;6.10;;
67595;SDS011;54410;48.694;8.934;2024-03-06T08:20:42;8.90;;;6.70;;
67595;SDS011;54410;48.694;8.934;2024-03-06T08:23:08;7.87;;;6.20;;
67595;SDS011;54410;48.694;8.934;2024-03-06T08:25:35;12.70;;;6.60;;
67595;SDS011;54410;48.694;8.934;2024-03-06T08:28:00;10.77;;;6.57;;
67595;SDS011;54410;48.694;8.934;2024-03-06T08:30:28;9.63;;;6.60;;
67595;SDS011;54410;48.694;8.934;2024-03-06T08:32:55;8.57;;;6.00;;
67595;SDS011;54410;48.694;8.934;2024-03-06T08:35:21;8.93;;;5.50;;
67595;SDS011;54410;48.694;8.934;2024-03-06T08:37:48;10.37;;;5.90;;
67595;SDS011;54410;48.694;8.934;2024-03-06T08:40:15;9.17;;;5.90;;
67595;SDS011;54410;48.694;8.934;2024-03-06T08:42:45;9.77;;;6.37;;
67595;SDS011;54410;48.694;8.934;2024-03-06T08:45:14;9.60;;;5.93;;
67595;SDS011;54410;48.694;8.934;2024-03-06T08:47:40;8.57;;;5.67;;
67595;SDS011;54410;48.694;8.934;2024-03-06T08:50:06;9.37;;;6.43;;
67595;SDS011;54410;48.694;8.934;2024-03-06T08:52:36;6.97;;;5.73;;
67595;SDS011;54410;48.694;8.934;2024-03-06T08:55:02;12.13;;;7.87;;
67595;SDS011;54410;48.694;8.934;2024-03-06T08:57:32;8.33;;;6.00;;
67595;SDS011;54410;48.694;8.934;2024-03-06T08:59:58;10.20;;;6.80;;
67595;SDS011;54410;48.694;8.934;2024-03-06T09:02:23;7.20;;;5.67;;
67595;SDS011;54410;48.694;8.934;2024-03-06T09:04:51;9.00;;;6.67;;
67595;SDS011;54410;48.694;8.934;2024-03-06T09:07:17;9.23;;;6.90;;
67595;SDS011;54410;48.694;8.934;2024-03-06T09:09:43;7.87;;;5.73;;
67595;SDS011;54410;48.694;8.934;2024-03-06T09:12:10;6.43;;;5.77;;
67595;SDS011;54410;48.694;8.934;2024-03-06T09:14:36;7.20;;;5.80;;
67595;SDS011;54410;48.694;8.934;2024-03-06T09:17:03;8.90;;;5.70;;
67595;SDS011;54410;48.694;8.934;2024-03-06T09:19:29;7.50;;;5.90;;
67595;SDS011;54410;48.694;8.934;2024-03-06T09:21:55;7.97;;;5.80;;
67595;SDS011;54410;48.694;8.934;2024-03-06T09:24:22;7.57;;;6.53;;
67595;SDS011;54410;48.694;8.934;2024-03-06T09:26:48;8.27;;;6.17;;
67595;SDS011;54410;48.694;8.934;2024-03-06T09:29:14;7.70;;;6.73;;
67595;SDS011;54410;48.694;8.934;2024-03-06T09:31:40;6.70;;;6.00;;
67595;SDS011;54410;48.694;8.934;2024-03-06T09:34:06;8.33;;;7.10;;
67595;SDS011;54410;48.694;8.934;2024-03-06T09:36:32;10.90;;;7.27;;
67595;SDS011;54410;48.694;8.934;2024-03-06T09:38:59;9.20;;;6.90;;
67595;SDS011;54410;48.694;8.934;2024-03-06T09:41:25;10.20;;;7.10;;
67595;SDS011;54410;48.694;8.934;2024-03-06T09:43:51;8.70;;;7.80;;
67595;SDS011;54410;48.694;8.934;2024-03-06T09:46:18;12.07;;;8.00;;
67595;SDS011;54410;48.694;8.934;2024-03-06T09:48:45;10.20;;;8.40;;
67595;SDS011;54410;48.694;8.934;2024-03-06T09:51:11;10.87;;;8.43;;
67595;SDS011;54410;48.694;8.934;2024-03-06T09:53:39;11.17;;;8.77;;
67595;SDS011;54410;48.694;8.934;2024-03-06T09:56:05;13.63;;;9.03;;
67595;SDS011;54410;48.694;8.934;2024-03-06T09:58:31;9.97;;;8.57;;
67595;SDS011;54410;48.694;8.934;2024-03-06T10:00:58;9.87;;;8.90;;
67595;SDS011;54410;48.694;8.934;2024-03-06T10:03:25;14.53;;;8.83;;
67595;SDS011;54410;48.694;8.934;2024-03-06T10:05:52;8.97;;;8.07;;
67595;SDS011;54410;48.694;8.934;2024-03-06T10:08:19;9.13;;;8.10;;
67595;SDS011;54410;48.694;8.934;2024-03-06T10:10:47;9.50;;;8.13;;
67595;SDS011;54410;48.694;8.934;2024-03-06T10:13:15;11.77;;;8.93;;
67595;SDS011;54410;48.694;8.934;2024-03-06T10:15:42;9.87;;;8.80;;
67595;SDS011;54410;48.694;8.934;2024-03-06T10:18:12;11.50;;;10.07;;
67595;SDS011;54410;48.694;8.934;2024-03-06T10:20:38;12.23;;;9.50;;
67595;SDS011;54410;48.694;8.934;2024-03-06T10:23:04;11.87;;;9.47;;
67595;SDS011;54410;48.694;8.934;2024-03-06T10:25:30;13.77;;;10.73;;
67595;SDS011;54410;48.694;8.934;2024-03-06T10:28:06;13.77;;;11.30;;
67595;SDS011;54410;48.694;8.934;2024-03-06T10:30:35;13.13;;;10.63;;
67595;SDS011;54410;48.694;8.934;2024-03-06T10:33:02;13.07;;;10.97;;
67595;SDS011;54410;48.694;8.934;2024-03-06T10:35:28;15.17;;;11.67;;
67595;SDS011;54410;48.694;8.934;2024-03-06T10:37:54;16.07;;;12.47;;
67595;SDS011;54410;48.694;8.934;2024-03-06T10:40:20;16.80;;;12.73;;
67595;SDS011;54410;48.694;8.934;2024-03-06T10:42:48;18.53;;;12.90;;
67595;SDS011;54410;48.694;8.934;2024-03-06T10:45:14;17.30;;;13.17;;
67595;SDS011;54410;48.694;8.934;2024-03-06T10:47:46;17.07;;;13.37;;
67595;SDS011;54410;48.694;8.934;2024-03-06T10:50:15;20.10;;;14.00;;
67595;SDS011;54410;48.694;8.934;2024-03-06T10:52:41;19.10;;;14.30;;
67595;SDS011;54410;48.694;8.934;2024-03-06T10:55:07;18.33;;;14.50;;
67595;SDS011;54410;48.694;8.934;2024-03-06T10:57:35;18.60;;;13.93;;
67595;SDS011;54410;48.694;8.934;2024-03-06T11:00:02;19.00;;;13.90;;
67595;SDS011;54410;48.694;8.934;2024-03-06T11:02:28;18.93;;;14.67;;
67595;SDS011;54410;48.694;8.934;2024-03-06T11:04:55;23.03;;;14.70;;
67595;SDS011;54410;48.694;8.934;2024-03-06T11:07:20;18.37;;;13.67;;
67595;SDS011;54410;48.694;8.934;2024-03-06T11:09:46;22.37;;;14.07;;
67595;SDS011;54410;48.694;8.934;2024-03-06T11:15:00;18.63;;;14.00;;
67595;SDS011;54410;48.694;8.934;2024-03-06T11:17:28;21.73;;;15.50;;
67595;SDS011;54410;48.694;8.934;2024-03-06T11:28:03;22.00;;;16.30;;
67595;SDS011;54410;48.694;8.934;2024-03-06T11:30:30;24.73;;;16.53;;
67595;SDS011;54410;48.694;8.934;2024-03-06T11:33:00;24.00;;;16.57;;
67595;SDS011;54410;48.694;8.934;2024-03-06T11:35:29;22.97;;;16.87;;
67595;SDS011;54410;48.694;8.934;2024-03-06T11:37:55;26.40;;;16.57;;
67595;SDS011;54410;48.694;8.934;2024-03-06T11:40:24;24.40;;;16.90;;
67595;SDS011;54410;48.694;8.934;2024-03-06T11:42:50;25.43;;;18.33;;
67595;SDS011;54410;48.694;8.934;2024-03-06T11:45:17;25.47;;;17.07;;
67595;SDS011;54410;48.694;8.934;2024-03-06T11:47:59;30.17;;;18.80;;
67595;SDS011;54410;48.694;8.934;2024-03-06T11:50:26;23.33;;;16.70;;
67595;SDS011;54410;48.694;8.934;2024-03-06T11:52:53;23.63;;;16.83;;
67595;SDS011;54410;48.694;8.934;2024-03-06T11:55:20;27.07;;;17.07;;
67595;SDS011;54410;48.694;8.934;2024-03-06T11:57:46;24.43;;;16.70;;
67595;SDS011;54410;48.694;8.934;2024-03-06T12:00:13;21.80;;;16.17;;
67595;SDS011;54410;48.694;8.934;2024-03-06T12:02:39;26.17;;;16.73;;
67595;SDS011;54410;48.694;8.934;2024-03-06T12:05:06;24.13;;;16.60;;
67595;SDS011;54410;48.694;8.934;2024-03-06T12:07:44;26.00;;;15.60;;
67595;SDS011;54410;48.694;8.934;2024-03-06T12:10:10;26.80;;;17.40;;
67595;SDS011;54410;48.694;8.934;2024-03-06T12:12:36;22.90;;;16.50;;
67595;SDS011;54410;48.694;8.934;2024-03-06T12:15:03;26.80;;;16.60;;
67595;SDS011;54410;48.694;8.934;2024-03-06T12:17:31;25.83;;;17.63;;
67595;SDS011;54410;48.694;8.934;2024-03-06T12:19:57;25.43;;;17.03;;
67595;SDS011;54410;48.694;8.934;2024-03-06T12:22:25;24.43;;;16.07;;
67595;SDS011;54410;48.694;8.934;2024-03-06T12:25:00;25.73;;;17.87;;
67595;SDS011;54410;48.694;8.934;2024-03-06T12:27:26;25.00;;;16.20;;
67595;SDS011;54410;48.694;8.934;2024-03-06T12:29:52;25.70;;;17.63;;
67595;SDS011;54410;48.694;8.934;2024-03-06T12:32:19;26.50;;;17.10;;
67595;SDS011;54410;48.694;8.934;2024-03-06T12:34:55;27.17;;;18.20;;
67595;SDS011;54410;48.694;8.934;2024-03-06T12:37:28;23.40;;;17.60;;
67595;SDS011;54410;48.694;8.934;2024-03-06T12:39:55;27.17;;;18.23;;
67595;SDS011;54410;48.694;8.934;2024-03-06T12:42:20;28.33;;;19.67;;
67595;SDS011;54410;48.694;8.934;2024-03-06T12:44:46;25.23;;;17.13;;
67595;SDS011;54410;48.694;8.934;2024-03-06T12:47:13;29.70;;;18.13;;
67595;SDS011;54410;48.694;8.934;2024-03-06T12:49:39;26.50;;;17.80;;
67595;SDS011;54410;48.694;8.934;2024-03-06T12:52:05;26.37;;;17.67;;
67595;SDS011;54410;48.694;8.934;2024-03-06T12:54:31;25.37;;;18.40;;
67595;SDS011;54410;48.694;8.934;2024-03-06T12:56:57;26.47;;;17.67;;
67595;SDS011;54410;48.694;8.934;2024-03-06T12:59:23;23.37;;;17.23;;
67595;SDS011;54410;48.694;8.934;2024-03-06T13:01:49;28.43;;;19.47;;
67595;SDS011;54410;48.694;8.934;2024-03-06T13:04:15;27.77;;;18.73;;
67595;SDS011;54410;48.694;8.934;2024-03-06T13:06:41;28.63;;;18.67;;
67595;SDS011;54410;48.694;8.934;2024-03-06T13:09:07;24.47;;;17.93;;
67595;SDS011;54410;48.694;8.934;2024-03-06T13:11:34;24.27;;;17.70;;
67595;SDS011;54410;48.694;8.934;2024-03-06T13:14:00;27.27;;;18.80;;
67595;SDS011;54410;48.694;8.934;2024-03-06T13:16:26;28.33;;;18.37;;
67595;SDS011;54410;48.694;8.934;2024-03-06T13:18:52;27.87;;;18.50;;
67595;SDS011;54410;48.694;8.934;2024-03-06T13:21:21;28.33;;;19.90;;
67595;SDS011;54410;48.694;8.934;2024-03-06T13:23:47;26.87;;;19.60;;
67595;SDS011;54410;48.694;8.934;2024-03-06T13:26:13;29.57;;;19.43;;
67595;SDS011;54410;48.694;8.934;2024-03-06T13:28:39;28.23;;;19.00;;
67595;SDS011;54410;48.694;8.934;2024-03-06T13:31:06;27.37;;;19.83;;
67595;SDS011;54410;48.694;8.934;2024-03-06T13:33:32;22.57;;;17.63;;
67595;SDS011;54410;48.694;8.934;2024-03-06T13:35:58;25.53;;;18.67;;
67595;SDS011;54410;48.694;8.934;2024-03-06T13:38:23;28.83;;;18.80;;
67595;SDS011;54410;48.694;8.934;2024-03-06T13:40:49;26.27;;;18.30;;
67595;SDS011;54410;48.694;8.934;2024-03-06T13:43:15;29.20;;;18.20;;
67595;SDS011;54410;48.694;8.934;2024-03-06T13:45:51;24.10;;;17.00;;
67595;SDS011;54410;48.694;8.934;2024-03-06T13:48:17;27.20;;;18.53;;
67595;SDS011;54410;48.694;8.934;2024-03-06T13:50:44;23.93;;;17.30;;
67595;SDS011;54410;48.694;8.934;2024-03-06T13:53:10;24.37;;;16.97;;
67595;SDS011;54410;48.694;8.934;2024-03-06T13:55:36;23.63;;;17.43;;
67595;SDS011;54410;48.694;8.934;2024-03-06T13:58:02;19.67;;;15.67;;
67595;SDS011;54410;48.694;8.934;2024-03-06T14:00:29;25.70;;;17.10;;
67595;SDS011;54410;48.694;8.934;2024-03-06T14:02:54;20.23;;;15.53;;
67595;SDS011;54410;48.694;8.934;2024-03-06T14:05:20;21.27;;;16.27;;
67595;SDS011;54410;48.694;8.934;2024-03-06T14:07:50;22.37;;;15.83;;
67595;SDS011;54410;48.694;8.934;2024-03-06T14:10:16;22.33;;;16.17;;
67595;SDS011;54410;48.694;8.934;2024-03-06T14:12:44;24.80;;;17.17;;
67595;SDS011;54410;48.694;8.934;2024-03-06T14:15:10;23.93;;;17.53;;
67595;SDS011;54410;48.694;8.934;2024-03-06T14:17:41;24.03;;;17.03;;
67595;SDS011;54410;48.694;8.934;2024-03-06T14:20:07;23.83;;;17.60;;
67595;SDS011;54410;48.694;8.934;2024-03-06T14:22:33;25.57;;;17.13;;
67595;SDS011;54410;48.694;8.934;2024-03-06T14:25:00;25.67;;;18.53;;
67595;SDS011;54410;48.694;8.934;2024-03-06T14:27:26;26.80;;;18.07;;
67595;SDS011;54410;48.694;8.934;2024-03-06T14:29:52;29.73;;;18.70;;
67595;SDS011;54410;48.694;8.934;2024-03-06T14:32:19;25.97;;;18.60;;
67595;SDS011;54410;48.694;8.934;2024-03-06T14:34:45;28.37;;;18.80;;
67595;SDS011;54410;48.694;8.934;2024-03-06T14:37:12;30.10;;;19.40;;
67595;SDS011;54410;48.694;8.934;2024-03-06T14:39:38;26.53;;;18.80;;
67595;SDS011;54410;48.694;8.934;2024-03-06T14:42:05;29.13;;;19.67;;
67595;SDS011;54410;48.694;8.934;2024-03-06T14:44:31;32.33;;;20.03;;